KGNC

Details ICAO KGNC
Name GAINES CO
Region United States
Timezone America/Chicago (UTC-5.0)
Plans Departing 4
Arriving 7
Stats Elevation 3,315 ft / 1,010 m (AMSL)
Location 32.675215° -102.652514°
Runways 2
Magnetic Variation 6.466° E
Sunrise 2018-05-25 11:47:39 UTC / 2018-05-25 06:47:39 Local
Sunset 2018-05-26 01:50:22 UTC / 2018-05-25 20:50:22 Local
Advertisement - Login to hide

Runways

ID Width Length Bearing (true) Bearing (mag) Surface Threshold Offset Overrun Length
08 75 ft / 23 m 5,366 ft / 1,636 m 89.71° 83.24° Asphalt 0 ft / 0 m 0 ft / 0 m
17 75 ft / 23 m 5,012 ft / 1,528 m 179.37° 172.90° Asphalt 0 ft / 0 m 0 ft / 0 m
26 75 ft / 23 m 5,366 ft / 1,636 m 269.72° 263.25° Asphalt 0 ft / 0 m 0 ft / 0 m
35 75 ft / 23 m 5,012 ft / 1,528 m 359.37° 352.90° Asphalt 0 ft / 0 m 0 ft / 0 m

Map

Weather


0- 5 10 15 20 25 30 35+ Temperature / ° C

Clouds and Precipitation
Forecast for 2018-05-25 12:00 UTC. Updated 2 hours ago

Ground ~20,000 ft ~40,000 ft Winds

METAR

KGNC 251055Z AUTO 21006KT 10SM CLR 20/15 A3004 RMK AO2 T01970154

TAF

Not found

Frequencies

Recorded 118.07 MHz AWOS 3
Approach 132.60 MHz FORT WORTH CNTR
Unicom 122.80 MHz CTAF/UNICOM
Warning: Do not use this data for real-world aviation or navigation. No guarantee of current accuracy is given.